createdAt,value
2023-05-05T00:01:32.508Z,13.32
2023-05-05T00:03:59.430Z,13.16
2023-05-05T00:06:27.952Z,13.02
2023-05-05T00:08:55.558Z,13.02
2023-05-05T00:11:22.345Z,13.00
2023-05-05T00:13:49.305Z,13.04
2023-05-05T00:16:17.004Z,13.21
2023-05-05T00:18:44.217Z,13.39
2023-05-05T00:21:11.837Z,13.46
2023-05-05T00:23:38.923Z,13.40
2023-05-05T00:26:06.081Z,13.51
2023-05-05T00:28:33.532Z,13.54
2023-05-05T00:31:00.942Z,13.64
2023-05-05T00:33:28.134Z,13.61
2023-05-05T00:35:54.827Z,13.61
2023-05-05T00:38:21.616Z,13.57
2023-05-05T00:40:48.416Z,13.84
2023-05-05T00:43:15.234Z,14.23
2023-05-05T00:45:47.424Z,14.59
2023-05-05T00:48:14.480Z,14.52
2023-05-05T00:50:41.461Z,15.00
2023-05-05T00:53:08.866Z,15.06
2023-05-05T00:55:36.171Z,14.88
2023-05-05T00:58:03.833Z,14.84
2023-05-05T01:00:30.903Z,14.85
2023-05-05T01:02:58.465Z,14.90
2023-05-05T01:05:26.469Z,15.04
2023-05-05T01:08:27.076Z,14.95
2023-05-05T01:10:58.273Z,14.58
2023-05-05T01:13:49.649Z,14.77
2023-05-05T01:16:19.970Z,14.90
2023-05-05T01:18:58.208Z,14.56
2023-05-05T01:21:28.350Z,14.39
2023-05-05T01:24:30.625Z,14.31
2023-05-05T01:27:00.016Z,14.25
2023-05-05T01:29:27.275Z,14.54
2023-05-05T01:32:00.792Z,14.73
2023-05-05T01:34:31.669Z,14.76
2023-05-05T01:37:07.706Z,14.73
2023-05-05T01:39:34.923Z,14.68
2023-05-05T01:42:04.689Z,14.42
2023-05-05T01:44:33.246Z,14.57
2023-05-05T01:47:00.259Z,14.81
2023-05-05T01:49:27.507Z,14.74
2023-05-05T01:51:55.483Z,12.33
2023-05-05T01:54:23.649Z,11.69
2023-05-05T01:56:50.591Z,11.78
2023-05-05T01:59:17.651Z,12.15
2023-05-05T02:01:46.624Z,12.21
2023-05-05T02:04:13.920Z,12.39
2023-05-05T02:06:41.338Z,12.03
2023-05-05T02:09:09.203Z,11.92
2023-05-05T02:11:36.189Z,12.10
2023-05-05T02:14:03.081Z,12.22
2023-05-05T02:16:30.653Z,12.23
2023-05-05T02:18:59.028Z,12.51
2023-05-05T02:21:25.876Z,12.94
2023-05-05T02:23:52.691Z,13.24
2023-05-05T02:26:21.049Z,13.24
2023-05-05T02:28:49.273Z,12.90
2023-05-05T02:31:17.591Z,11.52
2023-05-05T02:33:44.445Z,11.55
2023-05-05T02:36:21.614Z,11.80
2023-05-05T02:38:57.737Z,10.96
2023-05-05T02:41:26.312Z,10.12
2023-05-05T02:43:54.341Z,10.57
2023-05-05T02:46:21.846Z,10.77
2023-05-05T02:48:48.779Z,11.24
2023-05-05T02:51:15.549Z,11.90
2023-05-05T02:53:42.326Z,12.06
2023-05-05T02:56:30.651Z,12.16
2023-05-05T02:59:19.794Z,12.40
2023-05-05T03:02:14.836Z,12.38
2023-05-05T03:04:45.308Z,10.18
2023-05-05T03:07:15.331Z,10.75
2023-05-05T03:09:55.577Z,11.60
2023-05-05T03:12:22.400Z,12.59
2023-05-05T03:15:01.452Z,11.42
2023-05-05T03:17:29.947Z,10.30
2023-05-05T03:19:57.381Z,12.51
2023-05-05T03:22:26.829Z,12.87
2023-05-05T03:24:54.143Z,12.47
2023-05-05T03:27:23.444Z,12.09
2023-05-05T03:29:51.557Z,12.78
2023-05-05T03:32:18.546Z,13.10
2023-05-05T03:34:45.657Z,12.92
2023-05-05T03:37:12.858Z,13.14
2023-05-05T03:39:40.445Z,12.83
2023-05-05T03:42:07.668Z,13.06
2023-05-05T03:44:36.008Z,12.89
2023-05-05T03:47:03.439Z,12.85
2023-05-05T03:49:32.046Z,12.81
2023-05-05T03:51:59.133Z,12.85
2023-05-05T03:54:25.804Z,12.89
2023-05-05T03:56:52.659Z,13.07
2023-05-05T03:59:19.562Z,13.11
2023-05-05T04:01:48.447Z,13.05
2023-05-05T04:04:15.885Z,12.80
2023-05-05T04:06:42.703Z,12.93
2023-05-05T04:09:11.571Z,13.25
2023-05-05T04:11:38.478Z,13.39
2023-05-05T04:14:05.472Z,13.57
2023-05-05T04:16:32.572Z,13.63
2023-05-05T04:18:59.623Z,13.72
2023-05-05T04:21:26.873Z,13.94
2023-05-05T04:23:53.703Z,14.26
2023-05-05T04:26:21.272Z,14.48
2023-05-05T04:28:48.728Z,14.66
2023-05-05T04:31:16.118Z,14.93
2023-05-05T04:33:43.366Z,15.10
2023-05-05T04:36:10.966Z,14.99
2023-05-05T04:38:37.901Z,14.10
2023-05-05T04:41:08.159Z,13.97
2023-05-05T04:43:35.719Z,14.08
2023-05-05T04:46:03.197Z,14.28
2023-05-05T04:48:31.554Z,14.49
2023-05-05T04:50:58.509Z,14.45
2023-05-05T04:53:25.349Z,14.30
2023-05-05T04:55:52.188Z,13.87
2023-05-05T04:58:19.302Z,14.12
2023-05-05T05:00:46.476Z,13.89
2023-05-05T05:03:13.612Z,14.02
2023-05-05T05:05:40.466Z,14.44
2023-05-05T05:08:08.341Z,14.28
2023-05-05T05:10:35.637Z,14.28
2023-05-05T05:13:03.016Z,14.35
2023-05-05T05:15:30.089Z,14.32
2023-05-05T05:17:57.310Z,14.64
2023-05-05T05:20:24.654Z,14.85
2023-05-05T05:22:52.152Z,14.85
2023-05-05T05:25:20.068Z,14.90
2023-05-05T05:27:52.332Z,15.10
2023-05-05T05:30:30.387Z,15.65
2023-05-05T05:32:57.409Z,15.95
2023-05-05T05:35:24.263Z,15.75
2023-05-05T05:37:52.112Z,15.86
2023-05-05T05:40:19.300Z,15.76
2023-05-05T05:42:46.576Z,16.02
2023-05-05T05:45:13.595Z,15.90
2023-05-05T05:47:41.087Z,16.21
2023-05-05T05:50:08.513Z,16.31
2023-05-05T05:52:35.963Z,16.42
2023-05-05T05:55:04.851Z,16.61
2023-05-05T05:57:32.053Z,16.88
2023-05-05T06:00:00.476Z,17.16
2023-05-05T06:02:39.117Z,17.76
2023-05-05T06:05:07.704Z,18.30
2023-05-05T06:07:35.135Z,18.36
2023-05-05T06:10:14.506Z,18.52
2023-05-05T06:12:49.061Z,18.62
2023-05-05T06:15:16.083Z,18.51
2023-05-05T06:17:43.313Z,18.49
2023-05-05T06:20:12.354Z,18.74
2023-05-05T06:22:39.329Z,19.04
2023-05-05T06:25:07.201Z,19.34
2023-05-05T06:27:34.772Z,19.54
2023-05-05T06:30:01.793Z,20.21
2023-05-05T06:32:28.859Z,20.24
2023-05-05T06:34:55.837Z,20.25
2023-05-05T06:37:22.636Z,20.51
2023-05-05T06:39:49.686Z,20.83
2023-05-05T06:42:16.509Z,20.83
2023-05-05T06:44:43.226Z,21.06
2023-05-05T06:47:10.237Z,21.09
2023-05-05T06:49:37.035Z,21.31
2023-05-05T06:52:04.047Z,21.29
2023-05-05T06:54:30.981Z,20.86
2023-05-05T06:56:59.580Z,19.68
2023-05-05T06:59:26.678Z,20.06
2023-05-05T07:01:53.641Z,20.28
2023-05-05T07:04:21.047Z,20.54
2023-05-05T07:06:48.027Z,21.01
2023-05-05T07:09:17.022Z,21.60
2023-05-05T07:11:44.545Z,21.47
2023-05-05T07:14:11.402Z,21.99
2023-05-05T07:16:38.801Z,21.76
2023-05-05T07:19:05.814Z,19.61
2023-05-05T07:21:33.587Z,20.13
2023-05-05T07:24:01.511Z,20.86
2023-05-05T07:26:28.493Z,21.22
2023-05-05T07:28:56.744Z,21.55
2023-05-05T07:31:23.817Z,21.80
2023-05-05T07:33:50.735Z,21.53
2023-05-05T07:36:17.800Z,21.17
2023-05-05T07:38:44.630Z,20.85
2023-05-05T07:41:12.509Z,20.75
2023-05-05T07:43:44.072Z,21.40
2023-05-05T07:46:11.769Z,21.76
2023-05-05T07:48:40.614Z,21.60
2023-05-05T07:51:07.464Z,21.76
2023-05-05T07:53:34.255Z,21.76
2023-05-05T07:56:01.064Z,22.01
2023-05-05T07:58:27.934Z,22.21
2023-05-05T08:00:54.828Z,22.57
2023-05-05T08:03:23.817Z,22.44
2023-05-05T08:05:53.293Z,21.86
2023-05-05T08:08:23.845Z,21.79
2023-05-05T08:10:51.401Z,21.15
2023-05-05T08:13:18.580Z,21.59
2023-05-05T08:15:45.702Z,20.25
2023-05-05T08:18:13.493Z,18.11
2023-05-05T08:20:40.410Z,16.75
2023-05-05T08:23:07.379Z,19.69
2023-05-05T08:25:34.261Z,20.87
2023-05-05T08:28:01.077Z,21.34
2023-05-05T08:30:27.795Z,21.24
2023-05-05T08:32:54.582Z,21.23
2023-05-05T08:35:21.576Z,20.91
2023-05-05T08:37:50.553Z,20.86
2023-05-05T08:40:17.390Z,20.74
2023-05-05T08:42:45.274Z,21.01
2023-05-05T08:45:12.662Z,21.84
2023-05-05T08:47:40.387Z,22.36
2023-05-05T08:50:09.912Z,22.38
2023-05-05T08:52:39.710Z,22.02
2023-05-05T08:55:14.152Z,21.62
2023-05-05T08:57:50.942Z,21.74
2023-05-05T09:00:19.293Z,22.03
2023-05-05T09:02:46.491Z,22.25
2023-05-05T09:05:13.573Z,22.37
2023-05-05T09:07:43.026Z,22.55
2023-05-05T09:10:10.904Z,21.03
2023-05-05T09:12:39.813Z,18.27
2023-05-05T09:15:13.639Z,18.08
2023-05-05T09:17:41.014Z,18.21
2023-05-05T09:20:12.034Z,18.39
2023-05-05T09:22:46.145Z,19.82
2023-05-05T09:25:14.199Z,18.67
2023-05-05T09:27:45.521Z,20.38
2023-05-05T09:30:16.049Z,21.02
2023-05-05T09:32:47.461Z,21.28
2023-05-05T09:35:14.413Z,21.07
2023-05-05T09:37:41.224Z,21.46
2023-05-05T09:40:10.885Z,21.33
2023-05-05T09:42:38.955Z,21.13
2023-05-05T09:45:18.193Z,20.94
2023-05-05T09:47:46.439Z,21.08
2023-05-05T09:50:15.404Z,21.12
2023-05-05T09:52:42.761Z,21.48
2023-05-05T09:55:18.868Z,21.54
2023-05-05T09:57:46.734Z,21.87
2023-05-05T10:00:14.223Z,21.69
2023-05-05T10:02:41.268Z,21.90
2023-05-05T10:05:18.262Z,22.44
2023-05-05T10:07:46.439Z,22.37
2023-05-05T10:10:13.978Z,22.38
2023-05-05T10:12:41.672Z,22.51
2023-05-05T10:15:10.528Z,22.62
2023-05-05T10:18:07.049Z,23.14
2023-05-05T10:20:35.830Z,23.82
2023-05-05T10:23:02.683Z,23.91
2023-05-05T10:25:32.831Z,23.87
2023-05-05T10:28:00.773Z,23.80
2023-05-05T10:30:33.800Z,23.50
2023-05-05T10:33:34.775Z,22.94
2023-05-05T10:36:04.695Z,22.51
2023-05-05T10:38:32.162Z,22.26
2023-05-05T10:40:59.372Z,21.97
2023-05-05T10:43:27.529Z,22.24
2023-05-05T10:45:54.227Z,22.57
2023-05-05T10:48:46.581Z,22.83
2023-05-05T10:51:27.339Z,23.31
2023-05-05T10:54:15.411Z,23.47
2023-05-05T10:56:42.602Z,23.32
2023-05-05T10:59:37.460Z,23.46
2023-05-05T11:02:20.499Z,23.48
2023-05-05T11:05:09.624Z,22.98
2023-05-05T11:07:36.890Z,22.60
2023-05-05T11:10:04.814Z,22.36
2023-05-05T11:12:32.303Z,22.30
2023-05-05T11:15:30.811Z,22.77
2023-05-05T11:17:58.379Z,23.50
2023-05-05T11:20:40.687Z,24.33
2023-05-05T11:23:07.510Z,24.70
2023-05-05T11:25:41.465Z,24.46
2023-05-05T11:28:19.293Z,24.22
2023-05-05T11:30:56.062Z,23.96
2023-05-05T11:33:30.251Z,23.70
2023-05-05T11:36:06.735Z,23.77
2023-05-05T11:38:58.607Z,22.86
2023-05-05T11:41:34.460Z,22.88
2023-05-05T11:44:16.967Z,23.34
2023-05-05T11:46:52.669Z,23.37
2023-05-05T11:49:29.982Z,22.93
2023-05-05T11:52:00.987Z,22.84
2023-05-05T11:54:27.999Z,22.54
2023-05-05T11:56:58.645Z,22.69
2023-05-05T11:59:26.349Z,22.90
2023-05-05T12:01:53.225Z,23.09
2023-05-05T12:04:19.984Z,23.62
2023-05-05T12:06:48.409Z,23.21
2023-05-05T12:09:16.999Z,22.77
2023-05-05T12:11:56.467Z,22.52
2023-05-05T12:14:24.028Z,22.63
2023-05-05T12:16:55.170Z,22.51
2023-05-05T12:19:21.982Z,22.92
2023-05-05T12:21:48.985Z,22.76
2023-05-05T12:24:15.947Z,22.72
2023-05-05T12:26:42.891Z,22.94
2023-05-05T12:29:10.378Z,23.14
2023-05-05T12:31:38.019Z,23.34
2023-05-05T12:34:05.754Z,23.64
2023-05-05T12:36:33.455Z,24.01
2023-05-05T12:39:00.263Z,23.96
2023-05-05T12:41:27.505Z,23.57
2023-05-05T12:43:57.825Z,23.69
2023-05-05T12:46:25.876Z,23.40
2023-05-05T12:49:04.277Z,23.33
2023-05-05T12:51:32.058Z,23.84
2023-05-05T12:54:02.950Z,24.28
2023-05-05T12:56:43.490Z,24.46
2023-05-05T12:59:11.927Z,24.47
2023-05-05T13:01:49.399Z,24.60
2023-05-05T13:04:16.323Z,24.40
2023-05-05T13:06:44.703Z,24.44
2023-05-05T13:09:27.498Z,24.31
2023-05-05T13:11:54.300Z,24.75
2023-05-05T13:14:21.581Z,25.12
2023-05-05T13:16:48.707Z,25.58
2023-05-05T13:19:15.651Z,25.64
2023-05-05T13:21:42.324Z,25.77
2023-05-05T13:24:23.701Z,25.98
2023-05-05T13:26:56.013Z,25.96
2023-05-05T13:29:24.680Z,26.34
2023-05-05T13:31:54.092Z,26.73
2023-05-05T13:34:21.193Z,26.57
2023-05-05T13:36:48.005Z,26.14
2023-05-05T13:39:15.279Z,25.83
2023-05-05T13:41:44.021Z,25.10
2023-05-05T13:44:11.682Z,24.91
2023-05-05T13:46:38.482Z,24.89
2023-05-05T13:49:05.289Z,24.69
2023-05-05T13:51:34.051Z,24.92
2023-05-05T13:54:20.643Z,24.96
2023-05-05T13:56:47.335Z,25.04
2023-05-05T13:59:14.053Z,24.93
2023-05-05T14:01:40.872Z,24.68
2023-05-05T14:04:08.214Z,24.15
2023-05-05T14:06:35.530Z,24.00
2023-05-05T14:09:05.085Z,23.76
2023-05-05T14:11:32.192Z,23.59
2023-05-05T14:13:58.945Z,23.51
2023-05-05T14:16:25.698Z,23.19
2023-05-05T14:18:52.725Z,23.09
2023-05-05T14:21:19.477Z,22.91
2023-05-05T14:23:46.276Z,22.56
2023-05-05T14:26:13.138Z,22.83
2023-05-05T14:28:39.976Z,23.33
2023-05-05T14:31:06.692Z,23.70
2023-05-05T14:33:33.756Z,24.63
2023-05-05T14:36:00.526Z,25.60
2023-05-05T14:38:27.649Z,25.58
2023-05-05T14:40:54.711Z,24.74
2023-05-05T14:43:21.906Z,23.98
2023-05-05T14:45:48.638Z,23.86
2023-05-05T14:48:16.083Z,24.71
2023-05-05T14:50:45.717Z,25.78
2023-05-05T14:53:13.029Z,25.87
2023-05-05T14:55:39.893Z,25.98
2023-05-05T14:58:06.812Z,26.14
2023-05-05T15:00:33.621Z,26.72
2023-05-05T15:03:00.586Z,26.47
2023-05-05T15:05:27.713Z,26.24
2023-05-05T15:07:54.699Z,26.46
2023-05-05T15:10:22.192Z,25.88
2023-05-05T15:12:50.502Z,25.54
2023-05-05T15:15:17.444Z,25.21
2023-05-05T15:17:44.229Z,24.80
2023-05-05T15:20:11.469Z,24.46
2023-05-05T15:22:38.636Z,24.62
2023-05-05T15:25:09.076Z,25.19
2023-05-05T15:27:37.482Z,25.38
2023-05-05T15:30:05.414Z,25.79
2023-05-05T15:32:32.824Z,25.88
2023-05-05T15:34:59.908Z,24.85
2023-05-05T15:37:28.270Z,20.27
2023-05-05T15:39:55.645Z,20.61
2023-05-05T15:42:22.464Z,20.51
2023-05-05T15:44:49.210Z,20.36
2023-05-05T15:47:16.061Z,20.40
2023-05-05T15:49:42.931Z,20.47
2023-05-05T15:52:09.758Z,20.82
2023-05-05T15:54:36.550Z,20.76
2023-05-05T15:57:03.751Z,20.40
2023-05-05T15:59:30.640Z,20.42
2023-05-05T16:01:57.350Z,20.50
2023-05-05T16:04:24.118Z,20.61
2023-05-05T16:06:50.896Z,20.73
2023-05-05T16:09:17.752Z,20.68
2023-05-05T16:11:44.536Z,20.74
2023-05-05T16:14:11.471Z,20.83
2023-05-05T16:16:38.476Z,20.92
2023-05-05T16:19:05.438Z,20.76
2023-05-05T16:21:32.768Z,20.67
2023-05-05T16:23:59.557Z,20.59
2023-05-05T16:26:26.546Z,20.55
2023-05-05T16:28:53.321Z,20.65
2023-05-05T16:31:20.473Z,20.69
2023-05-05T16:33:47.233Z,20.55
2023-05-05T16:36:14.356Z,20.82
2023-05-05T16:38:41.193Z,20.48
2023-05-05T16:41:07.986Z,20.24
2023-05-05T16:43:37.889Z,20.08
2023-05-05T16:46:05.907Z,19.98
2023-05-05T16:48:33.148Z,19.87
2023-05-05T16:51:00.309Z,19.70
2023-05-05T16:53:27.166Z,19.64
2023-05-05T16:55:53.901Z,19.69
2023-05-05T16:58:21.898Z,19.62
2023-05-05T17:00:49.575Z,19.45
2023-05-05T17:03:17.508Z,19.19
2023-05-05T17:05:44.881Z,19.13
2023-05-05T17:08:13.625Z,19.06
2023-05-05T17:10:43.796Z,19.01
2023-05-05T17:13:10.891Z,19.02
2023-05-05T17:15:37.753Z,18.95
2023-05-05T17:18:05.371Z,18.98
2023-05-05T17:20:32.265Z,18.95
2023-05-05T17:22:59.339Z,18.82
2023-05-05T17:25:26.166Z,18.66
2023-05-05T17:27:56.286Z,18.66
2023-05-05T17:30:23.174Z,18.73
2023-05-05T17:32:50.099Z,18.85
2023-05-05T17:35:16.825Z,18.72
2023-05-05T17:37:43.973Z,18.35
2023-05-05T17:40:10.899Z,17.98
2023-05-05T17:42:38.530Z,17.36
2023-05-05T17:45:06.194Z,18.00
2023-05-05T17:47:33.929Z,17.67
2023-05-05T17:50:01.218Z,17.55
2023-05-05T17:52:28.399Z,17.51
2023-05-05T17:54:55.344Z,15.56
2023-05-05T17:57:22.243Z,15.20
2023-05-05T17:59:49.620Z,15.48
2023-05-05T18:02:16.410Z,15.52
2023-05-05T18:04:43.338Z,15.65
2023-05-05T18:07:11.675Z,15.63
2023-05-05T18:09:38.972Z,15.61
2023-05-05T18:12:07.233Z,15.65
2023-05-05T18:14:34.244Z,15.70
2023-05-05T18:17:01.838Z,15.83
2023-05-05T18:19:28.991Z,15.99
2023-05-05T18:21:56.872Z,16.25
2023-05-05T18:24:23.904Z,16.41
2023-05-05T18:26:51.460Z,16.46
2023-05-05T18:29:18.656Z,16.50
2023-05-05T18:31:47.813Z,16.50
2023-05-05T18:34:16.183Z,16.47
2023-05-05T18:36:43.129Z,16.46
2023-05-05T18:39:09.949Z,16.43
2023-05-05T18:41:37.362Z,16.58
2023-05-05T18:44:04.370Z,16.71
2023-05-05T18:46:31.245Z,16.75
2023-05-05T18:48:58.068Z,16.78
2023-05-05T18:51:25.658Z,16.78
2023-05-05T18:53:53.872Z,16.88
2023-05-05T18:56:21.203Z,16.92
2023-05-05T18:58:48.463Z,16.89
2023-05-05T19:01:15.722Z,16.85
2023-05-05T19:03:47.303Z,16.83
2023-05-05T19:06:14.550Z,16.81
2023-05-05T19:08:42.316Z,16.64
2023-05-05T19:11:09.068Z,16.58
2023-05-05T19:13:36.318Z,14.77
2023-05-05T19:16:03.471Z,14.99
2023-05-05T19:18:30.351Z,14.96
2023-05-05T19:20:57.125Z,15.14
2023-05-05T19:23:23.824Z,15.18
2023-05-05T19:25:52.291Z,15.08
2023-05-05T19:28:19.266Z,15.12
2023-05-05T19:30:48.087Z,15.21
2023-05-05T19:33:15.644Z,15.12
2023-05-05T19:35:43.302Z,15.21
2023-05-05T19:38:10.399Z,15.22
2023-05-05T19:40:38.114Z,15.48
2023-05-05T19:43:05.060Z,15.63
2023-05-05T19:45:33.132Z,15.73
2023-05-05T19:48:00.974Z,15.91
2023-05-05T19:50:29.629Z,13.01
2023-05-05T19:52:57.026Z,12.92
2023-05-05T19:55:23.916Z,13.79
2023-05-05T19:57:51.045Z,14.19
2023-05-05T20:00:18.036Z,14.27
2023-05-05T20:02:45.333Z,14.32
2023-05-05T20:05:13.481Z,14.57
2023-05-05T20:07:43.660Z,14.93
2023-05-05T20:10:12.554Z,15.09
2023-05-05T20:12:46.803Z,15.24
2023-05-05T20:15:19.022Z,15.20
2023-05-05T20:17:46.362Z,15.07
2023-05-05T20:20:19.845Z,15.00
2023-05-05T20:22:47.194Z,15.02
2023-05-05T20:25:17.543Z,15.07
2023-05-05T20:27:47.564Z,14.95
2023-05-05T20:30:14.493Z,15.04
2023-05-05T20:32:41.387Z,15.02
2023-05-05T20:35:08.701Z,15.06
2023-05-05T20:37:35.562Z,15.05
2023-05-05T20:40:02.591Z,15.32
2023-05-05T20:42:30.129Z,15.24
2023-05-05T20:44:57.305Z,15.23
2023-05-05T20:47:24.504Z,15.28
2023-05-05T20:49:51.744Z,15.49
2023-05-05T20:52:18.633Z,15.77
2023-05-05T20:54:45.655Z,15.76
2023-05-05T20:57:12.551Z,14.87
2023-05-05T20:59:39.579Z,14.45
2023-05-05T21:02:06.625Z,14.38
2023-05-05T21:04:33.548Z,14.43
2023-05-05T21:07:00.578Z,14.39
2023-05-05T21:09:27.661Z,14.26
2023-05-05T21:11:54.460Z,14.22
2023-05-05T21:14:21.629Z,14.32
2023-05-05T21:16:48.725Z,14.31
2023-05-05T21:19:15.926Z,14.25
2023-05-05T21:21:42.828Z,14.40
2023-05-05T21:24:09.965Z,14.23
2023-05-05T21:26:36.855Z,14.51
2023-05-05T21:29:03.925Z,14.51
2023-05-05T21:31:30.750Z,14.53
2023-05-05T21:33:57.766Z,14.53
2023-05-05T21:36:24.954Z,14.52
2023-05-05T21:38:54.762Z,14.62
2023-05-05T21:41:22.582Z,14.66
2023-05-05T21:43:49.366Z,14.55
2023-05-05T21:46:17.180Z,14.61
2023-05-05T21:48:45.922Z,14.65
2023-05-05T21:51:12.660Z,14.67
2023-05-05T21:53:40.320Z,14.80
2023-05-05T21:56:07.988Z,14.91
2023-05-05T21:58:34.852Z,14.99
2023-05-05T22:01:01.792Z,14.84
2023-05-05T22:03:29.333Z,15.02
2023-05-05T22:05:56.660Z,15.04
2023-05-05T22:08:23.830Z,14.51
2023-05-05T22:10:50.978Z,14.40
2023-05-05T22:13:17.806Z,14.39
2023-05-05T22:15:47.095Z,14.51
2023-05-05T22:18:14.993Z,14.53
2023-05-05T22:20:42.123Z,14.45
2023-05-05T22:23:08.900Z,14.50
2023-05-05T22:25:35.894Z,14.37
2023-05-05T22:28:02.978Z,14.32
2023-05-05T22:30:30.235Z,14.27
2023-05-05T22:32:57.048Z,14.35
2023-05-05T22:35:23.971Z,14.55
2023-05-05T22:37:51.102Z,15.03
2023-05-05T22:40:17.792Z,14.99
2023-05-05T22:42:44.480Z,15.11
2023-05-05T22:45:12.356Z,15.33
2023-05-05T22:47:39.393Z,15.38
2023-05-05T22:50:07.642Z,15.04
2023-05-05T22:52:34.816Z,14.90
2023-05-05T22:55:02.022Z,15.09
2023-05-05T22:57:29.072Z,10.92
2023-05-05T22:59:56.129Z,12.04
2023-05-05T23:02:23.354Z,12.77
2023-05-05T23:04:52.005Z,13.15
2023-05-05T23:07:18.889Z,13.28
2023-05-05T23:09:46.348Z,13.36
2023-05-05T23:12:13.295Z,13.10
2023-05-05T23:14:40.107Z,13.33
2023-05-05T23:17:06.902Z,13.31
2023-05-05T23:19:34.188Z,13.19
2023-05-05T23:22:01.522Z,13.30
2023-05-05T23:24:28.636Z,12.95
2023-05-05T23:26:58.134Z,12.90
2023-05-05T23:29:25.285Z,12.99
2023-05-05T23:31:52.327Z,13.08
2023-05-05T23:34:19.147Z,12.96
2023-05-05T23:36:46.160Z,12.86
2023-05-05T23:39:12.902Z,11.39
2023-05-05T23:41:39.848Z,12.01
2023-05-05T23:44:06.652Z,12.30
2023-05-05T23:46:34.395Z,12.28
2023-05-05T23:49:01.396Z,12.18
2023-05-05T23:51:28.603Z,12.26
2023-05-05T23:53:56.058Z,12.01
2023-05-05T23:56:23.811Z,12.52
2023-05-05T23:58:52.187Z,12.36
